METAR LSZS 301850Z AUTO 20001KT CAVOK 01/00 Q1016=